Time;durP1;ratioP1;P1;durP2;ratioP2;P2;SDS_P1;SDS_P2;PMS_P1;PMS_P2;Temp;Humidity;BMP_temperature;BMP_pressure;BME280_temperature;BME280_humidity;BME280_pressure;Samples;Min_cycle;Max_cycle;Signal;HPM_P1;HPM_P2
2022/12/20 00:01:30;;;;;;;20.35;10.40;;;8.90;99.90;;;;;;5035883;28;20050;-85
2022/12/20 00:03:58;;;;;;;23.25;12.10;;;9.00;99.90;;;;;;5035910;28;20080;-85
2022/12/20 00:06:24;;;;;;;22.38;11.25;;;9.00;99.90;;;;;;5036122;28;20038;-85
2022/12/20 00:08:59;;;;;;;22.25;11.27;;;9.00;99.90;;;;;;5035540;28;20049;-85
2022/12/20 00:11:25;;;;;;;24.27;10.07;;;9.00;99.90;;;;;;5035943;28;20053;-85
2022/12/20 00:13:51;;;;;;;19.65;10.07;;;9.10;99.90;;;;;;5035894;28;20084;-85
2022/12/20 00:16:23;;;;;;;17.67;10.88;;;9.10;99.90;;;;;;5035701;28;20561;-85
2022/12/20 00:18:56;;;;;;;20.60;9.73;;;9.10;99.90;;;;;;5035495;28;20489;-85
2022/12/20 00:21:22;;;;;;;22.33;9.95;;;9.10;99.90;;;;;;5035694;28;20046;-85
2022/12/20 00:23:48;;;;;;;20.25;9.88;;;9.10;99.90;;;;;;5035332;28;20444;-85
2022/12/20 00:26:19;;;;;;;23.33;10.70;;;9.10;99.90;;;;;;5035400;28;20045;-86
2022/12/20 00:28:45;;;;;;;19.38;10.60;;;9.10;99.90;;;;;;5035725;28;20081;-85
2022/12/20 00:31:14;;;;;;;16.95;9.43;;;9.10;99.90;;;;;;5035608;28;20519;-85
2022/12/20 00:33:43;;;;;;;21.55;9.68;;;9.20;99.90;;;;;;5035392;28;20553;-85
2022/12/20 00:36:09;;;;;;;16.75;9.55;;;9.10;99.90;;;;;;5035473;28;20073;-86
2022/12/20 00:38:35;;;;;;;21.52;9.98;;;9.20;99.90;;;;;;5035171;28;20487;-85
2022/12/20 00:41:02;;;;;;;15.88;8.82;;;9.20;99.90;;;;;;5035364;28;20045;-85
2022/12/20 00:43:29;;;;;;;21.85;9.55;;;9.20;99.90;;;;;;5035116;28;20045;-86
2022/12/20 00:45:55;;;;;;;22.80;10.50;;;9.20;99.90;;;;;;5034659;28;20050;-85
2022/12/20 00:48:21;;;;;;;15.77;9.27;;;9.20;99.90;;;;;;5034874;28;20053;-85
2022/12/20 00:50:46;;;;;;;22.35;9.05;;;9.10;99.90;;;;;;5035185;28;20088;-86
2022/12/20 00:53:12;;;;;;;20.75;9.63;;;9.20;99.90;;;;;;5034753;28;20056;-85
2022/12/20 00:55:45;;;;;;;18.67;9.10;;;9.10;99.90;;;;;;5034931;28;20073;-86
2022/12/20 00:58:11;;;;;;;;;;;9.20;99.90;;;;;;5035285;28;20106;-85
2022/12/20 01:00:38;;;;;;;20.58;9.07;;;9.10;99.90;;;;;;5035918;28;19928;-85
2022/12/20 01:03:04;;;;;;;18.70;9.88;;;9.10;99.90;;;;;;5034936;28;20037;-85
2022/12/20 01:05:30;;;;;;;22.83;10.55;;;9.20;99.90;;;;;;5034791;28;20053;-86
2022/12/20 01:07:56;;;;;;;15.30;9.05;;;9.20;99.90;;;;;;5034750;28;20385;-86
2022/12/20 01:10:22;;;;;;;16.95;9.10;;;9.20;99.90;;;;;;5034224;28;20041;-86
2022/12/20 01:12:48;;;;;;;25.38;9.13;;;9.20;99.90;;;;;;5034728;28;20081;-85
2022/12/20 01:15:14;;;;;;;17.13;9.48;;;9.20;99.90;;;;;;5035255;28;20056;-85
2022/12/20 01:17:40;;;;;;;20.15;9.40;;;9.10;99.90;;;;;;5034344;28;20037;-86
2022/12/20 01:20:06;;;;;;;16.27;8.27;;;9.20;99.90;;;;;;5035564;28;20048;-86
2022/12/20 01:22:32;;;;;;;15.50;8.93;;;9.20;99.90;;;;;;5034683;28;20184;-85
2022/12/20 01:24:57;;;;;;;18.02;8.98;;;9.30;99.90;;;;;;5034218;28;20140;-86
2022/12/20 01:27:23;;;;;;;15.05;9.45;;;9.20;99.90;;;;;;5034609;28;20049;-86
2022/12/20 01:29:48;;;;;;;18.02;9.55;;;9.30;99.90;;;;;;5034389;28;20473;-86
2022/12/20 01:32:14;;;;;;;16.35;8.65;;;9.20;99.90;;;;;;5034152;28;20049;-85
2022/12/20 01:34:40;;;;;;;19.98;8.73;;;9.30;99.90;;;;;;5034163;28;20042;-85
2022/12/20 01:37:05;;;;;;;17.70;9.60;;;9.20;99.90;;;;;;5034116;28;20042;-85
2022/12/20 01:39:31;;;;;;;22.15;9.52;;;9.30;99.90;;;;;;5034414;28;20135;-85
2022/12/20 01:41:57;;;;;;;17.77;8.80;;;9.30;99.90;;;;;;5034396;28;20440;-85
2022/12/20 01:44:22;;;;;;;17.33;8.98;;;9.20;99.90;;;;;;5033693;28;20056;-85
2022/12/20 01:46:49;;;;;;;18.52;8.90;;;9.30;99.90;;;;;;5033834;28;20049;-86
2022/12/20 01:49:24;;;;;;;19.50;9.05;;;9.30;99.90;;;;;;5033749;28;20045;-86
2022/12/20 01:51:52;;;;;;;17.95;8.68;;;9.20;99.90;;;;;;5034083;28;20464;-86
2022/12/20 01:54:24;;;;;;;16.98;9.13;;;9.20;99.90;;;;;;5034087;28;20132;-86
2022/12/20 01:56:58;;;;;;;20.48;8.73;;;9.20;99.90;;;;;;5033769;28;20042;-85
2022/12/20 01:59:25;;;;;;;16.13;8.07;;;9.20;99.90;;;;;;5033821;28;20379;-86
2022/12/20 02:01:50;;;;;;;16.55;7.82;;;9.20;99.90;;;;;;5033824;28;20124;-86
2022/12/20 02:04:16;;;;;;;16.95;8.65;;;9.20;99.90;;;;;;5017137;28;20157;-86
2022/12/20 02:06:42;;;;;;;14.65;8.38;;;9.30;99.90;;;;;;5033577;28;20049;-86
2022/12/20 02:09:08;;;;;;;14.93;7.85;;;9.20;99.90;;;;;;5033523;28;20037;-86
2022/12/20 02:11:39;;;;;;;14.88;8.05;;;9.20;99.90;;;;;;5033316;28;20049;-86
2022/12/20 02:14:41;;;;;;;20.17;8.32;;;9.20;99.90;;;;;;5033414;28;20045;-86
2022/12/20 02:17:10;;;;;;;17.90;9.18;;;9.30;99.90;;;;;;5033921;28;20099;-86
2022/12/20 02:20:10;;;;;;;16.42;8.70;;;9.30;99.90;;;;;;5033046;28;20425;-86
2022/12/20 02:23:04;;;;;;;17.52;8.32;;;9.30;99.90;;;;;;5033312;28;20049;-86
2022/12/20 02:25:42;;;;;;;18.48;8.80;;;9.30;99.90;;;;;;5034558;28;20081;-86
2022/12/20 02:28:40;;;;;;;22.40;9.02;;;9.20;99.90;;;;;;5033055;28;20049;-86
2022/12/20 02:31:10;;;;;;;14.13;7.78;;;9.30;99.90;;;;;;5033152;28;20179;-86
2022/12/20 02:33:39;;;;;;;15.20;8.38;;;9.30;99.90;;;;;;5033132;28;20045;-86
2022/12/20 02:36:05;;;;;;;13.90;8.23;;;9.30;99.90;;;;;;5033138;28;20065;-86
2022/12/20 02:38:39;;;;;;;16.65;8.68;;;9.30;99.90;;;;;;5032989;28;20037;-86
2022/12/20 02:41:19;;;;;;;20.67;9.35;;;9.30;99.90;;;;;;5033159;28;20401;-86
2022/12/20 02:46:36;;;;;;;16.25;8.00;;;9.30;99.90;;;;;;5032690;28;20061;-85
2022/12/20 02:49:10;;;;;;;14.23;7.53;;;9.30;99.90;;;;;;5033115;28;20053;-86
2022/12/20 02:51:37;;;;;;;13.88;7.63;;;9.20;99.90;;;;;;5032680;28;20033;-85
2022/12/20 02:54:03;;;;;;;14.32;7.05;;;9.30;99.90;;;;;;5033014;28;20041;-86
2022/12/20 02:56:35;;;;;;;14.48;8.80;;;9.30;99.90;;;;;;5032568;28;20044;-85
2022/12/20 02:59:11;;;;;;;16.00;7.70;;;9.40;99.90;;;;;;5032711;28;20048;-85
2022/12/20 03:01:46;;;;;;;19.00;8.05;;;9.30;99.90;;;;;;5032764;28;20061;-85
2022/12/20 03:04:13;;;;;;;15.65;8.07;;;9.30;99.90;;;;;;5032819;28;20523;-85
2022/12/20 03:06:53;;;;;;;13.68;7.53;;;9.30;99.90;;;;;;5032584;28;20054;-85
2022/12/20 03:09:19;;;;;;;17.55;8.07;;;9.20;99.90;;;;;;5032929;28;20053;-85
2022/12/20 03:11:45;;;;;;;15.90;8.63;;;9.20;99.90;;;;;;5032546;28;20111;-85
2022/12/20 03:14:10;;;;;;;15.10;8.15;;;9.20;99.90;;;;;;5032638;28;20081;-85
2022/12/20 03:16:36;;;;;;;14.50;8.40;;;9.10;99.90;;;;;;5032558;28;20075;-85
2022/12/20 03:19:01;;;;;;;17.58;8.25;;;9.10;99.90;;;;;;5033442;28;20085;-85
2022/12/20 03:21:27;;;;;;;19.60;8.35;;;9.10;99.90;;;;;;5032630;28;20063;-85
2022/12/20 03:23:53;;;;;;;15.88;7.63;;;9.20;99.90;;;;;;5032392;28;20128;-85
2022/12/20 03:26:18;;;;;;;17.90;9.27;;;9.20;99.90;;;;;;5033436;28;20041;-85
2022/12/20 03:28:44;;;;;;;15.90;7.97;;;9.20;99.90;;;;;;5032016;28;20042;-85
2022/12/20 03:31:09;;;;;;;13.98;8.23;;;9.10;99.90;;;;;;5032510;28;20042;-86
2022/12/20 03:33:35;;;;;;;19.33;8.05;;;9.20;99.90;;;;;;5036303;28;20114;-86
2022/12/20 03:36:01;;;;;;;14.95;7.80;;;9.10;99.90;;;;;;5037386;28;20428;-86
2022/12/20 03:38:26;;;;;;;14.88;8.27;;;9.20;99.90;;;;;;5036370;28;20482;-86
2022/12/20 03:40:52;;;;;;;18.05;7.90;;;9.20;99.90;;;;;;5036336;28;20438;-85
2022/12/20 03:43:17;;;;;;;18.45;8.13;;;9.10;99.90;;;;;;5036422;28;20052;-86
2022/12/20 03:45:43;;;;;;;15.70;7.90;;;9.20;99.90;;;;;;5035920;28;20430;-86
2022/12/20 03:48:09;;;;;;;14.90;7.20;;;9.10;99.90;;;;;;5036311;28;20049;-86
2022/12/20 03:50:35;;;;;;;20.50;8.90;;;9.10;99.90;;;;;;5036353;28;20389;-86
2022/12/20 03:53:01;;;;;;;13.85;7.55;;;9.00;99.90;;;;;;5036146;28;20049;-86
2022/12/20 03:55:27;;;;;;;15.43;7.22;;;9.10;99.90;;;;;;5047305;28;20044;-85
2022/12/20 03:57:53;;;;;;;16.35;7.55;;;9.10;99.90;;;;;;5055757;28;20052;-86
2022/12/20 04:00:19;;;;;;;18.83;7.75;;;9.30;99.90;;;;;;5056047;28;20135;-85
2022/12/20 04:02:45;;;;;;;13.10;7.80;;;9.30;99.90;;;;;;5056055;28;20488;-85
2022/12/20 04:05:11;;;;;;;19.90;8.32;;;9.20;99.90;;;;;;5055806;28;20048;-85
2022/12/20 04:07:37;;;;;;;17.45;7.80;;;9.30;99.90;;;;;;5055823;28;20049;-85
2022/12/20 04:10:03;;;;;;;13.23;7.72;;;9.30;99.90;;;;;;5056060;28;20107;-85
2022/12/20 04:12:29;;;;;;;16.20;7.72;;;9.20;99.90;;;;;;5055533;28;20048;-85
2022/12/20 04:14:54;;;;;;;17.25;7.70;;;9.20;99.90;;;;;;5055833;28;20099;-85
2022/12/20 04:17:20;;;;;;;17.50;7.60;;;9.30;99.90;;;;;;5055512;28;20473;-85
2022/12/20 04:19:46;;;;;;;14.65;7.53;;;9.20;99.90;;;;;;5055520;28;20114;-85
2022/12/20 04:22:11;;;;;;;16.42;8.15;;;9.20;99.90;;;;;;5055581;28;20507;-85
2022/12/20 04:24:40;;;;;;;13.65;7.80;;;9.40;99.90;;;;;;5056744;28;20049;-85
2022/12/20 04:27:05;;;;;;;18.10;8.38;;;9.40;99.90;;;;;;5055311;28;20048;-85
2022/12/20 04:29:31;;;;;;;22.45;8.55;;;9.30;99.90;;;;;;5055377;28;20049;-85
2022/12/20 04:31:57;;;;;;;18.60;8.10;;;9.40;99.90;;;;;;5055579;28;20037;-85
2022/12/20 04:34:22;;;;;;;16.17;7.80;;;9.40;99.90;;;;;;5055220;28;20049;-86
2022/12/20 04:36:48;;;;;;;15.52;8.35;;;9.40;99.90;;;;;;5055244;28;20128;-85
2022/12/20 04:39:13;;;;;;;15.38;8.32;;;9.40;99.90;;;;;;5055142;28;20124;-86
2022/12/20 04:41:39;;;;;;;16.40;8.35;;;9.30;99.90;;;;;;5055288;28;20137;-85
2022/12/20 04:44:05;;;;;;;15.38;8.30;;;9.40;99.90;;;;;;5054061;28;20049;-86
2022/12/20 04:46:36;;;;;;;20.98;8.63;;;9.50;99.90;;;;;;5054837;28;20106;-86
2022/12/20 04:49:02;;;;;;;16.85;8.75;;;9.40;99.90;;;;;;5055038;28;20047;-86
2022/12/20 04:51:28;;;;;;;20.63;8.68;;;9.40;99.90;;;;;;5054731;28;20124;-86
2022/12/20 04:53:54;;;;;;;17.25;8.60;;;9.40;99.90;;;;;;5055228;28;20045;-86
2022/12/20 04:56:27;;;;;;;18.42;8.32;;;9.40;99.90;;;;;;5054739;28;20087;-86
2022/12/20 04:58:55;;;;;;;18.40;8.35;;;9.50;99.90;;;;;;5054963;28;20041;-86
2022/12/20 05:01:21;;;;;;;15.30;8.05;;;9.40;99.90;;;;;;5054830;28;20047;-86
2022/12/20 05:03:48;;;;;;;12.38;7.60;;;9.40;99.90;;;;;;5055061;28;20045;-86
2022/12/20 05:06:14;;;;;;;19.63;9.13;;;9.50;99.90;;;;;;5054994;28;20101;-86
2022/12/20 05:08:40;;;;;;;14.68;7.55;;;9.50;99.90;;;;;;5054916;28;20052;-86
2022/12/20 05:11:05;;;;;;;16.83;7.90;;;9.50;99.90;;;;;;5054831;28;20041;-86
2022/12/20 05:13:32;;;;;;;24.08;9.52;;;9.50;99.90;;;;;;5054513;28;20049;-86
2022/12/20 05:15:58;;;;;;;17.30;8.60;;;9.50;99.90;;;;;;5054716;28;20033;-86
2022/12/20 05:18:25;;;;;;;16.17;8.65;;;9.60;99.90;;;;;;5054393;28;20459;-86
2022/12/20 05:26:30;;;;;;;18.48;7.95;;;9.60;99.90;;;;;;5054353;28;20102;-86
2022/12/20 05:28:56;;;;;;;21.23;9.73;;;9.50;99.90;;;;;;5055593;28;20045;-85
2022/12/20 05:31:22;;;;;;;16.58;7.97;;;9.70;99.90;;;;;;5054550;28;20450;-85
2022/12/20 05:33:48;;;;;;;18.05;7.82;;;9.70;99.90;;;;;;5054329;28;20044;-85
2022/12/20 05:36:13;;;;;;;15.52;8.00;;;9.70;99.90;;;;;;5055456;28;20052;-85
2022/12/20 05:38:39;;;;;;;13.80;7.95;;;9.50;99.90;;;;;;5053959;28;20049;-86
2022/12/20 05:41:05;;;;;;;14.70;8.13;;;9.60;99.90;;;;;;5053892;28;20045;-86
2022/12/20 05:43:31;;;;;;;22.23;9.70;;;9.60;99.90;;;;;;5054028;28;20103;-86
2022/12/20 05:45:57;;;;;;;16.05;8.15;;;9.60;99.90;;;;;;5053798;28;20485;-85
2022/12/20 05:48:23;;;;;;;15.55;7.55;;;9.70;99.90;;;;;;5055138;28;20051;-86
2022/12/20 05:50:48;;;;;;;14.95;8.23;;;9.70;99.90;;;;;;5053720;28;20126;-85
2022/12/20 05:53:16;;;;;;;13.80;7.38;;;9.70;99.90;;;;;;5053745;28;20037;-86
2022/12/20 05:55:50;;;;;;;17.98;7.97;;;9.80;99.90;;;;;;5053708;28;20395;-86
2022/12/20 05:58:15;;;;;;;14.65;6.82;;;9.70;99.90;;;;;;5053619;28;20055;-86
2022/12/20 06:00:43;;;;;;;14.77;8.15;;;9.70;99.90;;;;;;5053510;28;20041;-86
2022/12/20 06:03:10;;;;;;;18.17;7.90;;;9.70;99.90;;;;;;5053557;28;20053;-86
2022/12/20 06:05:37;;;;;;;13.68;7.20;;;9.80;99.90;;;;;;5053757;28;20037;-86
2022/12/20 06:08:04;;;;;;;14.82;7.78;;;9.70;99.90;;;;;;5053478;28;20094;-86
2022/12/20 06:10:30;;;;;;;16.33;7.20;;;9.70;99.90;;;;;;5053741;28;20091;-86
2022/12/20 06:12:56;;;;;;;16.00;7.50;;;9.80;99.90;;;;;;5053691;28;20044;-86
2022/12/20 06:15:22;;;;;;;16.67;7.68;;;9.80;99.90;;;;;;5053559;28;20472;-86
2022/12/20 06:17:47;;;;;;;21.30;7.38;;;9.70;99.90;;;;;;5053280;28;20485;-87
2022/12/20 06:20:13;;;;;;;16.45;7.43;;;9.80;99.90;;;;;;5053246;28;20044;-86
2022/12/20 06:22:39;;;;;;;15.02;8.32;;;9.70;99.90;;;;;;5053209;28;20056;-86
2022/12/20 06:25:08;;;;;;;15.90;7.70;;;9.80;99.90;;;;;;5053494;28;20152;-86
2022/12/20 06:27:34;;;;;;;14.63;7.95;;;9.80;99.90;;;;;;5053185;28;20124;-86
2022/12/20 06:29:59;;;;;;;19.83;7.60;;;9.80;99.90;;;;;;5053010;28;20060;-86
2022/12/20 06:32:25;;;;;;;16.52;8.57;;;9.70;99.90;;;;;;5053252;28;20045;-86
2022/12/20 06:34:50;;;;;;;14.32;7.47;;;9.80;99.90;;;;;;5053034;28;20052;-86
2022/12/20 06:37:16;;;;;;;17.67;8.07;;;9.80;99.90;;;;;;5053199;28;20045;-86
2022/12/20 06:39:42;;;;;;;16.13;7.50;;;9.90;99.90;;;;;;5054135;28;20491;-86
2022/12/20 06:42:07;;;;;;;15.68;7.65;;;9.90;99.90;;;;;;5053188;28;20033;-86
2022/12/20 06:44:33;;;;;;;14.32;7.45;;;9.90;99.90;;;;;;5052489;28;20550;-85
2022/12/20 06:46:59;;;;;;;15.02;6.72;;;9.80;99.90;;;;;;5052599;28;20049;-85
2022/12/20 06:49:24;;;;;;;13.48;7.50;;;9.90;99.90;;;;;;5052653;28;20102;-86
2022/12/20 06:51:50;;;;;;;18.27;8.50;;;9.80;99.90;;;;;;5052692;28;20416;-86
2022/12/20 06:54:15;;;;;;;14.98;7.13;;;9.80;99.90;;;;;;5052761;28;20048;-86
2022/12/20 06:56:41;;;;;;;18.95;7.53;;;9.80;99.90;;;;;;5052945;28;20045;-86
2022/12/20 06:59:07;;;;;;;17.05;7.50;;;9.80;99.90;;;;;;5052393;28;20448;-86
2022/12/20 07:01:32;;;;;;;15.48;8.18;;;9.90;99.90;;;;;;5052461;28;20124;-86
2022/12/20 07:03:58;;;;;;;16.38;8.77;;;9.90;99.90;;;;;;5052543;28;20045;-87
2022/12/20 07:06:25;;;;;;;17.55;9.60;;;9.80;99.90;;;;;;5052405;28;20045;-87
2022/12/20 07:08:51;;;;;;;21.75;9.02;;;9.80;99.90;;;;;;5053754;28;20098;-86
2022/12/20 07:11:17;;;;;;;18.48;9.15;;;9.90;99.90;;;;;;5052741;28;20044;-86
2022/12/20 07:13:43;;;;;;;17.20;8.85;;;9.80;99.90;;;;;;5052265;28;20048;-86
2022/12/20 07:16:09;;;;;;;22.17;9.73;;;9.80;99.90;;;;;;5052250;28;20098;-86
2022/12/20 07:18:34;;;;;;;19.30;9.95;;;9.80;99.90;;;;;;5052185;28;20048;-86
2022/12/20 07:21:04;;;;;;;18.17;9.70;;;9.80;99.90;;;;;;5052586;28;20040;-86
2022/12/20 07:23:31;;;;;;;20.27;9.95;;;9.70;99.90;;;;;;5052572;28;20053;-86
2022/12/20 07:25:58;;;;;;;20.65;9.35;;;9.80;99.90;;;;;;5052569;28;20084;-86
2022/12/20 07:28:26;;;;;;;17.08;8.95;;;9.80;99.90;;;;;;5052113;28;20053;-86
2022/12/20 07:30:52;;;;;;;18.63;10.05;;;9.80;99.90;;;;;;5053414;28;20055;-86
2022/12/20 07:33:18;;;;;;;26.00;11.48;;;9.70;99.90;;;;;;5052365;28;20045;-86
2022/12/20 07:35:45;;;;;;;20.35;11.02;;;9.80;99.90;;;;;;5052473;28;20080;-86
2022/12/20 07:38:11;;;;;;;23.30;10.90;;;9.70;99.90;;;;;;5052269;28;20045;-86
2022/12/20 07:40:41;;;;;;;18.63;11.38;;;9.80;99.90;;;;;;5053365;28;20057;-86
2022/12/20 07:43:08;;;;;;;20.70;11.10;;;9.70;99.90;;;;;;5051995;28;20045;-86
2022/12/20 07:45:33;;;;;;;20.42;11.27;;;9.80;99.90;;;;;;5051869;28;20127;-86
2022/12/20 07:47:59;;;;;;;23.15;11.98;;;9.80;99.90;;;;;;5052635;28;20220;-86
2022/12/20 07:50:27;;;;;;;22.20;11.85;;;9.80;99.90;;;;;;5052048;28;20387;-85
2022/12/20 07:52:53;;;;;;;21.00;10.85;;;9.90;99.90;;;;;;5052025;28;20053;-85
2022/12/20 07:55:19;;;;;;;20.65;11.18;;;9.90;99.90;;;;;;5051839;28;20036;-86
2022/12/20 07:57:52;;;;;;;22.40;10.88;;;9.80;99.90;;;;;;5051436;28;20392;-86
2022/12/20 08:00:18;;;;;;;22.15;10.52;;;9.80;99.90;;;;;;5051738;28;20099;-85
2022/12/20 08:02:58;;;;;;;20.50;11.10;;;9.80;99.90;;;;;;5051798;28;20041;-86
2022/12/20 08:05:23;;;;;;;20.70;10.73;;;9.90;99.90;;;;;;5051247;28;20068;-85
2022/12/20 08:07:49;;;;;;;24.27;11.30;;;9.90;99.90;;;;;;5051423;28;20414;-86
2022/12/20 08:10:18;;;;;;;21.25;11.23;;;9.80;99.90;;;;;;5051662;28;20073;-86
2022/12/20 08:12:46;;;;;;;19.77;10.63;;;9.70;99.90;;;;;;5051648;28;20500;-86
2022/12/20 08:15:12;;;;;;;23.55;10.60;;;9.70;99.90;;;;;;5051869;28;20044;-85
2022/12/20 08:17:38;;;;;;;20.60;10.27;;;9.80;99.90;;;;;;5051538;28;20044;-85
2022/12/20 08:20:05;;;;;;;23.77;10.13;;;9.80;99.90;;;;;;5054703;28;20106;-85
2022/12/20 08:22:31;;;;;;;21.67;11.30;;;9.70;99.90;;;;;;5055358;28;20542;-85
2022/12/20 08:24:57;;;;;;;16.60;9.02;;;9.70;99.90;;;;;;5055507;28;20373;-87
2022/12/20 08:27:22;;;;;;;20.10;10.63;;;9.80;99.90;;;;;;5056553;28;20175;-86
2022/12/20 08:29:48;;;;;;;21.33;10.30;;;9.90;99.90;;;;;;5055190;28;20045;-86
2022/12/20 08:32:14;;;;;;;15.95;10.05;;;9.90;99.90;;;;;;5055472;28;20053;-84
2022/12/20 08:34:40;;;;;;;19.42;10.45;;;9.90;99.90;;;;;;5051560;28;20535;-85
2022/12/20 08:37:06;;;;;;;15.70;8.25;;;9.90;99.90;;;;;;5046234;28;20510;-85
2022/12/20 08:39:32;;;;;;;15.43;8.68;;;9.80;99.90;;;;;;5055134;28;20127;-85
2022/12/20 08:41:58;;;;;;;15.23;9.35;;;9.90;99.90;;;;;;5054762;28;20515;-86
2022/12/20 08:44:24;;;;;;;17.15;8.82;;;9.90;99.90;;;;;;5054743;28;20545;-84
2022/12/20 08:46:50;;;;;;;18.42;8.85;;;9.90;99.90;;;;;;5056219;28;20163;-85
2022/12/20 08:49:15;;;;;;;16.25;8.98;;;9.90;99.90;;;;;;5054571;28;20128;-84
2022/12/20 08:51:41;;;;;;;17.00;9.02;;;10.00;99.90;;;;;;5054844;28;20039;-85
2022/12/20 08:54:07;;;;;;;15.85;8.32;;;10.00;99.90;;;;;;5054610;28;20411;-85
2022/12/20 08:56:33;;;;;;;15.27;7.82;;;10.00;99.90;;;;;;5054460;28;20049;-85
2022/12/20 08:58:58;;;;;;;18.80;9.63;;;10.10;99.90;;;;;;5054485;28;20485;-86
2022/12/20 09:01:25;;;;;;;13.60;8.18;;;10.00;99.90;;;;;;5054424;28;20041;-84
2022/12/20 09:03:51;;;;;;;15.75;7.82;;;10.00;99.90;;;;;;5054579;28;20378;-84
2022/12/20 09:06:20;;;;;;;16.67;8.13;;;10.10;99.90;;;;;;5054398;28;20527;-88
2022/12/20 09:08:47;;;;;;;18.75;8.07;;;10.10;99.90;;;;;;5054667;28;20047;-86
2022/12/20 09:11:19;;;;;;;14.15;7.60;;;10.10;99.90;;;;;;5054343;28;20059;-88
2022/12/20 09:13:48;;;;;;;14.65;7.88;;;10.20;99.90;;;;;;5054253;28;20136;-86
2022/12/20 09:16:17;;;;;;;14.70;7.15;;;10.20;99.90;;;;;;5054081;28;20051;-87
2022/12/20 09:18:46;;;;;;;14.10;6.72;;;10.20;99.90;;;;;;5054149;28;20091;-84
2022/12/20 09:21:12;;;;;;;18.00;8.13;;;10.30;99.90;;;;;;5054349;28;20080;-87
2022/12/20 09:23:37;;;;;;;16.17;7.25;;;10.20;99.90;;;;;;5054383;28;20079;-87
2022/12/20 09:26:05;;;;;;;13.30;6.40;;;10.40;99.90;;;;;;5054172;28;20052;-85
2022/12/20 09:28:32;;;;;;;17.50;7.72;;;10.40;99.90;;;;;;5054065;28;20477;-86
2022/12/20 09:31:03;;;;;;;11.52;6.88;;;10.30;99.90;;;;;;5053703;28;20507;-83
2022/12/20 09:33:30;;;;;;;17.55;8.43;;;10.40;99.90;;;;;;5053624;28;20059;-85
2022/12/20 09:35:57;;;;;;;14.20;6.45;;;10.40;99.90;;;;;;5053440;28;20121;-86
2022/12/20 09:38:22;;;;;;;12.50;7.15;;;10.40;99.90;;;;;;5053717;28;20049;-87
2022/12/20 09:40:51;;;;;;;12.52;6.45;;;10.40;99.90;;;;;;5053752;28;20484;-86
2022/12/20 09:43:19;;;;;;;13.13;6.70;;;10.40;99.90;;;;;;5053492;28;20053;-87
2022/12/20 09:45:47;;;;;;;13.73;7.55;;;10.50;99.90;;;;;;5053573;28;20043;-83
2022/12/20 09:48:22;;;;;;;13.55;6.47;;;10.50;99.90;;;;;;5053818;28;20455;-87
2022/12/20 09:51:14;;;;;;;18.88;7.68;;;10.50;99.90;;;;;;5053520;28;20045;-86
2022/12/20 09:54:17;;;;;;;13.88;6.65;;;10.50;99.90;;;;;;5042365;28;20091;-86
2022/12/20 09:56:44;;;;;;;14.13;7.80;;;10.50;99.90;;;;;;5035714;28;20048;-86
2022/12/20 09:59:16;;;;;;;12.05;6.75;;;10.50;99.90;;;;;;5040485;28;20128;-86
2022/12/20 10:01:47;;;;;;;13.25;6.68;;;10.50;99.90;;;;;;5033455;28;20084;-85
2022/12/20 10:04:28;;;;;;;16.42;6.97;;;10.50;99.90;;;;;;5033276;28;20084;-85
2022/12/20 10:06:54;;;;;;;17.45;6.35;;;10.50;99.90;;;;;;5033280;28;20049;-85
2022/12/20 10:09:33;;;;;;;12.32;6.50;;;10.40;99.90;;;;;;5033453;28;20123;-85
2022/12/20 10:12:24;;;;;;;13.35;6.60;;;10.50;99.90;;;;;;5033189;28;20080;-86
2022/12/20 10:14:59;;;;;;;12.30;7.00;;;10.40;99.90;;;;;;5033210;28;20041;-86
2022/12/20 10:18:00;;;;;;;12.93;7.07;;;10.50;99.90;;;;;;5033284;28;20046;-86
2022/12/20 10:20:31;;;;;;;14.15;7.13;;;10.40;99.90;;;;;;5024839;28;20068;-85
2022/12/20 10:23:24;;;;;;;17.90;7.22;;;10.40;99.90;;;;;;5032854;28;20037;-86
2022/12/20 10:25:55;;;;;;;15.73;6.50;;;10.40;99.90;;;;;;5033294;28;20064;-86
2022/12/20 10:28:28;;;;;;;15.20;6.47;;;10.30;99.90;;;;;;5033118;28;20539;-86
2022/12/20 10:30:57;;;;;;;14.38;6.30;;;10.30;99.90;;;;;;5033108;28;20501;-86
2022/12/20 10:33:23;;;;;;;10.85;6.88;;;10.30;99.90;;;;;;5032671;28;20045;-87
2022/12/20 10:35:50;;;;;;;17.10;6.63;;;10.30;99.90;;;;;;5033046;28;20045;-87
2022/12/20 10:38:17;;;;;;;14.98;7.75;;;10.30;99.90;;;;;;5032720;28;20401;-86
2022/12/20 10:40:42;;;;;;;18.88;8.68;;;10.30;99.90;;;;;;5032519;28;20045;-87
2022/12/20 10:43:23;;;;;;;30.65;17.17;;;10.30;99.90;;;;;;5032388;28;20052;-86
2022/12/20 10:46:04;;;;;;;15.60;10.10;;;10.20;99.90;;;;;;5032552;28;20103;-86
2022/12/20 10:48:33;;;;;;;13.63;8.13;;;10.20;99.90;;;;;;5032599;28;20063;-87
2022/12/20 10:51:09;;;;;;;12.88;7.43;;;10.30;99.90;;;;;;5032428;28;20049;-86
2022/12/20 10:53:57;;;;;;;15.32;7.63;;;10.20;99.90;;;;;;5032403;28;20042;-87
2022/12/20 10:56:29;;;;;;;14.77;7.82;;;10.20;99.90;;;;;;5032046;28;20099;-87
2022/12/20 10:59:01;;;;;;;14.55;7.90;;;10.30;99.90;;;;;;5032270;28;20045;-86
2022/12/20 11:01:41;;;;;;;13.33;7.03;;;10.30;99.90;;;;;;5032591;28;20045;-86
2022/12/20 11:04:26;;;;;;;12.90;7.03;;;10.40;99.90;;;;;;5032319;28;20284;-87
2022/12/20 11:06:52;;;;;;;15.90;6.30;;;10.20;99.90;;;;;;5032276;28;20131;-86
2022/12/20 11:09:24;;;;;;;16.35;7.05;;;10.20;99.90;;;;;;5032388;28;20100;-87
2022/12/20 11:12:15;;;;;;;13.52;7.22;;;10.30;99.90;;;;;;5032417;28;20048;-87
2022/12/20 11:14:43;;;;;;;12.73;5.88;;;10.30;99.90;;;;;;5032490;28;20049;-86
2022/12/20 11:17:24;;;;;;;13.35;7.47;;;10.30;99.90;;;;;;5031995;28;20073;-87
2022/12/20 11:20:11;;;;;;;10.75;6.55;;;10.30;99.90;;;;;;5032119;28;20111;-87
2022/12/20 11:22:55;;;;;;;16.30;7.20;;;10.30;99.90;;;;;;5032103;28;20056;-85
2022/12/20 11:26:00;;;;;;;15.80;7.45;;;10.20;99.90;;;;;;5032255;28;20041;-87
2022/12/20 11:28:50;;;;;;;15.55;7.65;;;10.20;99.90;;;;;;5035123;28;20045;-86
2022/12/20 11:31:31;;;;;;;17.33;7.95;;;10.20;99.90;;;;;;5052171;28;20561;-85
2022/12/20 11:34:07;;;;;;;16.65;8.07;;;10.20;99.90;;;;;;5052073;28;20126;-85
2022/12/20 11:36:52;;;;;;;18.95;10.43;;;10.20;99.90;;;;;;5051821;28;20059;-85
2022/12/20 11:39:30;;;;;;;11.77;7.03;;;10.10;99.90;;;;;;5051761;28;20057;-87
2022/12/20 11:42:03;;;;;;;15.52;8.32;;;10.10;99.90;;;;;;5051719;28;20045;-86
2022/12/20 11:45:00;;;;;;;15.40;7.95;;;10.00;99.90;;;;;;5051583;28;20412;-85
2022/12/20 11:47:54;;;;;;;13.88;8.05;;;10.10;99.90;;;;;;5051680;28;20053;-86
2022/12/20 11:50:51;;;;;;;17.75;8.80;;;10.00;99.90;;;;;;5051994;28;20041;-87
2022/12/20 11:53:31;;;;;;;22.17;9.50;;;10.00;99.90;;;;;;5053193;28;20045;-84
2022/12/20 11:56:04;;;;;;;23.15;9.13;;;9.90;99.90;;;;;;5054148;28;20041;-85
2022/12/20 11:58:47;;;;;;;20.45;9.73;;;10.00;99.90;;;;;;5054360;28;20044;-85
2022/12/20 12:01:16;;;;;;;27.40;12.15;;;9.90;99.90;;;;;;5055929;28;20155;-82
2022/12/20 12:04:12;;;;;;;21.30;10.18;;;10.00;99.90;;;;;;5055015;28;20155;-79
2022/12/20 12:06:44;;;;;;;19.73;10.32;;;9.90;99.90;;;;;;5055722;28;20496;-85
2022/12/20 12:09:29;;;;;;;19.83;10.57;;;10.00;99.90;;;;;;5055715;28;20045;-84
2022/12/20 12:12:04;;;;;;;19.70;10.82;;;9.80;99.90;;;;;;5055570;28;20114;-85
2022/12/20 12:15:03;;;;;;;20.38;11.35;;;9.80;99.90;;;;;;5055741;28;20076;-84
2022/12/20 12:17:53;;;;;;;21.75;12.43;;;9.90;99.90;;;;;;5055064;28;20045;-84
2022/12/20 12:21:00;;;;;;;21.58;12.05;;;9.70;99.90;;;;;;5055550;28;20052;-83
2022/12/20 12:23:51;;;;;;;23.45;12.77;;;9.80;99.90;;;;;;5052156;28;20060;-84
2022/12/20 12:26:23;;;;;;;27.05;13.13;;;9.80;99.90;;;;;;5055204;28;20088;-83
2022/12/20 12:28:56;;;;;;;;;;;9.70;99.90;;;;;;5055484;28;20103;-84
2022/12/20 12:31:35;;;;;;;28.23;13.33;;;9.70;99.90;;;;;;5055147;28;19928;-84
2022/12/20 12:34:24;;;;;;;28.67;13.55;;;9.80;99.90;;;;;;5054886;28;20850;-85
2022/12/20 12:37:19;;;;;;;26.48;16.00;;;9.70;99.90;;;;;;5055204;28;20061;-84
2022/12/20 12:39:51;;;;;;;25.38;14.50;;;9.80;99.90;;;;;;5055093;28;20041;-82
2022/12/20 12:42:22;;;;;;;30.73;16.08;;;9.70;99.90;;;;;;5055097;28;20045;-85
2022/12/20 12:44:56;;;;;;;33.75;16.95;;;9.70;99.90;;;;;;5054868;28;20057;-84
2022/12/20 12:47:45;;;;;;;29.52;15.95;;;9.60;99.90;;;;;;5054878;28;20049;-84
2022/12/20 12:50:26;;;;;;;31.45;17.58;;;9.60;99.90;;;;;;5044934;28;20121;-84
2022/12/20 12:52:56;;;;;;;26.25;14.82;;;9.70;99.90;;;;;;5054904;28;20132;-84
2022/12/20 12:55:46;;;;;;;29.40;16.48;;;9.70;99.90;;;;;;5054411;28;20037;-85
2022/12/20 12:58:24;;;;;;;28.58;16.73;;;9.60;99.90;;;;;;5054440;28;20053;-86
2022/12/20 13:00:52;;;;;;;32.70;18.20;;;9.60;99.90;;;;;;5054798;28;20057;-81
2022/12/20 13:03:42;;;;;;;38.25;19.48;;;9.70;99.90;;;;;;5054420;28;20090;-77
2022/12/20 13:06:37;;;;;;;35.63;19.88;;;9.60;99.90;;;;;;5053972;28;20060;-76
2022/12/20 13:09:02;;;;;;;35.30;19.73;;;9.70;99.90;;;;;;5036833;28;20049;-78